createdAt,value
2019-05-03T00:01:54.827Z,67.38
2019-05-03T00:04:23.334Z,66.89
2019-05-03T00:06:52.124Z,67.17
2019-05-03T00:09:22.451Z,67.43
2019-05-03T00:11:52.726Z,67.00
2019-05-03T00:14:21.776Z,67.44
2019-05-03T00:16:52.259Z,67.56
2019-05-03T00:19:21.943Z,67.83
2019-05-03T00:21:52.475Z,67.63
2019-05-03T00:24:22.490Z,67.61
2019-05-03T00:26:51.673Z,67.60
2019-05-03T00:29:21.995Z,68.00
2019-05-03T00:31:51.679Z,66.07
2019-05-03T00:34:24.438Z,68.13
2019-05-03T00:36:56.003Z,68.06
2019-05-03T00:39:29.377Z,68.14
2019-05-03T00:41:57.817Z,67.90
2019-05-03T00:44:26.524Z,67.88
2019-05-03T00:46:55.012Z,67.83
2019-05-03T00:49:23.526Z,67.50
2019-05-03T00:51:52.048Z,65.94
2019-05-03T00:54:22.266Z,67.75
2019-05-03T00:56:52.263Z,67.88
2019-05-03T00:59:22.131Z,68.13
2019-05-03T01:01:52.140Z,68.27
2019-05-03T01:04:22.362Z,68.29
2019-05-03T01:06:52.685Z,68.64
2019-05-03T01:09:23.319Z,68.37
2019-05-03T01:11:52.466Z,68.37
2019-05-03T01:14:22.553Z,68.33
2019-05-03T01:16:52.202Z,68.43
2019-05-03T01:19:22.592Z,68.60
2019-05-03T01:21:51.603Z,67.53
2019-05-03T01:24:21.771Z,68.55
2019-05-03T01:26:52.451Z,68.66
2019-05-03T01:29:22.795Z,68.47
2019-05-03T01:31:52.848Z,68.57
2019-05-03T01:34:22.008Z,68.65
2019-05-03T01:36:51.895Z,68.60
2019-05-03T01:39:22.090Z,68.58
2019-05-03T01:41:51.924Z,68.65
2019-05-03T01:44:22.026Z,68.65
2019-05-03T01:46:52.123Z,68.87
2019-05-03T01:49:34.496Z,68.84
2019-05-03T01:52:16.438Z,69.07
2019-05-03T01:54:45.075Z,69.34
2019-05-03T01:57:13.774Z,69.53
2019-05-03T01:59:42.670Z,69.67
2019-05-03T02:02:26.743Z,69.62
2019-05-03T02:05:14.266Z,69.71
2019-05-03T02:07:42.756Z,69.67
2019-05-03T02:10:11.898Z,69.58
2019-05-03T02:12:41.734Z,69.71
2019-05-03T02:15:11.876Z,69.76
2019-05-03T02:17:42.528Z,69.69
2019-05-03T02:20:12.623Z,69.54
2019-05-03T02:22:42.829Z,69.78
2019-05-03T02:25:12.405Z,69.64
2019-05-03T02:27:42.352Z,69.66
2019-05-03T02:30:13.717Z,69.49
2019-05-03T02:32:43.797Z,69.51
2019-05-03T02:35:14.017Z,69.59
2019-05-03T02:37:43.908Z,69.64
2019-05-03T02:40:13.099Z,69.80
2019-05-03T02:42:46.390Z,69.77
2019-05-03T02:45:21.306Z,69.61
2019-05-03T02:47:57.031Z,69.63
2019-05-03T02:50:26.170Z,69.65
2019-05-03T02:52:55.290Z,69.47
2019-05-03T02:55:26.000Z,69.47
2019-05-03T02:57:56.299Z,69.54
2019-05-03T03:00:55.876Z,69.75
2019-05-03T03:03:25.422Z,69.83
2019-05-03T03:05:55.886Z,69.78
2019-05-03T03:08:25.189Z,69.88
2019-05-03T03:10:55.678Z,69.81
2019-05-03T03:13:25.337Z,69.93
2019-05-03T03:15:55.361Z,69.82
2019-05-03T03:18:25.512Z,69.79
2019-05-03T03:20:55.343Z,69.74
2019-05-03T03:23:26.262Z,69.69
2019-05-03T03:25:55.837Z,69.64
2019-05-03T03:28:25.288Z,69.55
2019-05-03T03:31:28.439Z,69.58
2019-05-03T03:33:59.552Z,69.52
2019-05-03T03:36:46.203Z,69.50
2019-05-03T03:38:59.289Z,69.42
2019-05-03T03:41:28.146Z,69.37
2019-05-03T03:43:56.629Z,69.55
2019-05-03T03:46:25.390Z,69.47
2019-05-03T03:48:55.850Z,69.61
2019-05-03T03:51:26.292Z,69.68
2019-05-03T03:53:55.703Z,69.66
2019-05-03T03:56:25.545Z,69.52
2019-05-03T03:58:55.589Z,69.44
2019-05-03T04:01:26.743Z,69.50
2019-05-03T04:03:56.172Z,69.46
2019-05-03T04:06:40.517Z,69.40
2019-05-03T04:09:09.682Z,69.60
2019-05-03T04:11:38.169Z,69.91
2019-05-03T04:14:08.933Z,70.05
2019-05-03T04:16:45.414Z,70.13
2019-05-03T04:19:18.459Z,70.04
2019-05-03T04:21:46.974Z,70.30
2019-05-03T04:24:16.255Z,70.11
2019-05-03T04:26:45.401Z,70.12
2019-05-03T04:29:16.037Z,70.35
2019-05-03T04:31:45.776Z,70.32
2019-05-03T04:34:16.282Z,70.19
2019-05-03T04:36:46.192Z,70.19
2019-05-03T04:39:19.669Z,70.16
2019-05-03T04:41:45.540Z,70.03
2019-05-03T04:44:15.412Z,69.99
2019-05-03T04:46:46.403Z,69.90
2019-05-03T04:49:15.227Z,69.95
2019-05-03T04:51:46.373Z,70.13
2019-05-03T04:54:29.553Z,70.05
2019-05-03T04:56:58.294Z,69.97
2019-05-03T04:59:26.736Z,69.86
2019-05-03T05:01:56.033Z,69.71
2019-05-03T05:04:25.430Z,69.91
2019-05-03T05:06:55.512Z,69.50
2019-05-03T05:09:25.868Z,69.62
2019-05-03T05:11:54.907Z,69.42
2019-05-03T05:14:25.668Z,69.06
2019-05-03T05:16:55.711Z,69.31
2019-05-03T05:19:32.236Z,69.20
2019-05-03T05:22:05.993Z,69.09
2019-05-03T05:24:34.607Z,68.95
2019-05-03T05:27:25.611Z,68.92
2019-05-03T05:29:55.408Z,68.78
2019-05-03T05:32:24.801Z,68.18
2019-05-03T05:34:54.968Z,68.71
2019-05-03T05:37:25.004Z,68.33
2019-05-03T05:39:55.086Z,68.65
2019-05-03T05:42:25.083Z,68.62
2019-05-03T05:44:55.550Z,68.67
2019-05-03T05:47:36.005Z,68.63
2019-05-03T05:50:08.776Z,68.38
2019-05-03T05:52:37.255Z,68.23
2019-05-03T05:55:25.167Z,68.05
2019-05-03T05:58:04.631Z,67.96
2019-05-03T06:00:36.103Z,67.68
2019-05-03T06:03:05.172Z,67.29
2019-05-03T06:05:35.430Z,67.47
2019-05-03T06:08:11.775Z,67.33
2019-05-03T06:10:48.534Z,67.09
2019-05-03T06:13:37.152Z,67.15
2019-05-03T06:16:20.253Z,64.39
2019-05-03T06:19:04.630Z,66.63
2019-05-03T06:21:48.721Z,66.88
2019-05-03T06:24:25.876Z,66.65
2019-05-03T06:27:00.225Z,65.32
2019-05-03T06:29:28.688Z,64.98
2019-05-03T06:32:31.289Z,65.00
2019-05-03T06:35:00.184Z,65.62
2019-05-03T06:37:31.459Z,65.04
2019-05-03T06:40:00.075Z,63.64
2019-05-03T06:42:28.666Z,65.66
2019-05-03T06:44:59.717Z,64.35
2019-05-03T06:47:28.600Z,64.44
2019-05-03T06:49:57.126Z,64.63
2019-05-03T06:52:29.254Z,64.38
2019-05-03T06:55:00.484Z,61.25
2019-05-03T06:57:26.209Z,63.14
2019-05-03T07:00:05.325Z,62.80
2019-05-03T07:02:55.771Z,63.48
2019-05-03T07:05:35.434Z,63.55
2019-05-03T07:08:25.205Z,59.09
2019-05-03T07:10:56.542Z,62.36
2019-05-03T07:13:25.545Z,58.61
2019-05-03T07:15:56.003Z,62.32
2019-05-03T07:18:24.724Z,60.28
2019-05-03T07:20:57.160Z,61.97
2019-05-03T07:23:25.667Z,62.02
2019-05-03T07:25:55.139Z,62.09
2019-05-03T07:28:24.791Z,62.53
2019-05-03T07:30:54.407Z,59.16
2019-05-03T07:33:27.963Z,61.82
2019-05-03T07:35:56.484Z,59.08
2019-05-03T07:38:25.041Z,59.32
2019-05-03T07:40:54.986Z,57.06
2019-05-03T07:43:24.531Z,60.61
2019-05-03T07:45:55.096Z,56.10
2019-05-03T07:48:25.497Z,60.19
2019-05-03T07:50:54.665Z,61.29
2019-05-03T07:53:25.203Z,61.07
2019-05-03T07:56:15.472Z,60.26
2019-05-03T07:59:00.075Z,59.22
2019-05-03T08:01:35.597Z,58.96
2019-05-03T08:04:05.463Z,60.28
2019-05-03T08:06:34.573Z,56.09
2019-05-03T08:09:04.937Z,59.73
2019-05-03T08:11:35.168Z,59.01
2019-05-03T08:14:04.959Z,58.21
2019-05-03T08:16:35.329Z,55.02
2019-05-03T08:19:04.889Z,58.12
2019-05-03T08:21:37.906Z,53.47
2019-05-03T08:24:04.530Z,58.26
2019-05-03T08:26:34.986Z,58.39
2019-05-03T08:29:15.670Z,57.95
2019-05-03T08:31:52.068Z,58.12
2019-05-03T08:34:45.179Z,55.82
2019-05-03T08:37:16.730Z,54.02
2019-05-03T08:39:45.546Z,58.00
2019-05-03T08:42:20.438Z,57.21
2019-05-03T08:44:48.915Z,57.96
2019-05-03T08:47:17.529Z,56.03
2019-05-03T08:49:45.996Z,58.61
2019-05-03T08:52:15.708Z,58.70
2019-05-03T08:54:44.892Z,57.42
2019-05-03T08:57:15.039Z,53.00
2019-05-03T08:59:44.606Z,55.71
2019-05-03T09:02:17.426Z,56.05
2019-05-03T09:04:45.949Z,52.75
2019-05-03T09:07:14.747Z,53.50
2019-05-03T09:09:49.715Z,56.74
2019-05-03T09:12:18.166Z,56.31
2019-05-03T09:14:48.493Z,53.94
2019-05-03T09:17:16.809Z,56.50
2019-05-03T09:19:45.544Z,58.56
2019-05-03T09:22:14.765Z,59.83
2019-05-03T09:24:45.547Z,60.12
2019-05-03T09:27:15.435Z,60.54
2019-05-03T09:29:46.176Z,60.18
2019-05-03T09:32:14.808Z,60.24
2019-05-03T09:34:44.496Z,60.27
2019-05-03T09:37:12.970Z,60.09
2019-05-03T09:39:41.649Z,60.07
2019-05-03T09:42:10.110Z,60.04
2019-05-03T09:44:38.608Z,60.15
2019-05-03T09:47:07.075Z,59.91
2019-05-03T09:49:35.569Z,59.55
2019-05-03T09:52:08.100Z,59.29
2019-05-03T09:54:45.300Z,58.61
2019-05-03T09:57:15.255Z,58.13
2019-05-03T09:59:56.532Z,57.58
2019-05-03T10:02:15.177Z,57.70
2019-05-03T10:04:44.607Z,56.92
2019-05-03T10:07:15.382Z,56.05
2019-05-03T10:09:44.953Z,57.00
2019-05-03T10:12:18.005Z,56.58
2019-05-03T10:14:46.715Z,55.38
2019-05-03T10:17:35.199Z,58.12
2019-05-03T10:20:05.663Z,58.83
2019-05-03T10:22:34.916Z,59.10
2019-05-03T10:25:04.994Z,59.40
2019-05-03T10:27:45.753Z,59.47
2019-05-03T10:30:17.346Z,59.33
2019-05-03T10:32:48.678Z,59.04
2019-05-03T10:35:17.442Z,59.03
2019-05-03T10:37:45.894Z,58.93
2019-05-03T10:40:18.344Z,57.54
2019-05-03T10:42:46.886Z,58.43
2019-05-03T10:45:15.360Z,57.62
2019-05-03T10:47:45.649Z,57.28
2019-05-03T10:50:15.620Z,56.85
2019-05-03T10:52:49.067Z,56.89
2019-05-03T10:55:17.532Z,56.78
2019-05-03T10:57:48.769Z,55.93
2019-05-03T11:00:44.285Z,55.52
2019-05-03T11:03:00.874Z,54.72
2019-05-03T11:05:29.637Z,51.23
2019-05-03T11:07:58.091Z,51.50
2019-05-03T11:10:26.567Z,50.85
2019-05-03T11:12:55.102Z,51.51
2019-05-03T11:15:25.691Z,53.84
2019-05-03T11:17:54.900Z,52.21
2019-05-03T11:20:36.244Z,53.14
2019-05-03T11:23:05.904Z,54.11
2019-05-03T11:25:34.868Z,54.12
2019-05-03T11:28:07.025Z,50.58
2019-05-03T11:30:35.961Z,52.51
2019-05-03T11:33:11.931Z,51.49
2019-05-03T11:35:44.826Z,49.47
2019-05-03T11:38:19.324Z,50.25
2019-05-03T11:40:47.996Z,54.68
2019-05-03T11:43:18.310Z,54.98
2019-05-03T11:45:46.773Z,54.58
2019-05-03T11:48:15.232Z,54.46
2019-05-03T11:50:45.350Z,53.84
2019-05-03T11:53:14.528Z,54.14
2019-05-03T11:55:46.283Z,54.51
2019-05-03T11:58:23.088Z,54.47
2019-05-03T12:01:11.811Z,52.31
2019-05-03T12:03:35.536Z,54.87
2019-05-03T12:06:04.946Z,54.46
2019-05-03T12:08:34.584Z,53.48
2019-05-03T12:11:05.587Z,53.81
2019-05-03T12:13:33.662Z,53.03
2019-05-03T12:16:12.915Z,53.09
2019-05-03T12:18:46.068Z,52.53
2019-05-03T12:21:05.280Z,52.30
2019-05-03T12:23:36.136Z,50.65
2019-05-03T12:26:09.460Z,52.14
2019-05-03T12:28:35.279Z,52.84
2019-05-03T12:31:04.904Z,52.73
2019-05-03T12:33:35.455Z,53.34
2019-05-03T12:36:05.360Z,54.17
2019-05-03T12:38:34.887Z,54.44
2019-05-03T12:41:05.578Z,54.07
2019-05-03T12:43:33.964Z,54.11
2019-05-03T12:46:02.439Z,54.18
2019-05-03T12:48:30.908Z,53.92
2019-05-03T12:50:59.844Z,53.08
2019-05-03T12:53:28.329Z,51.75
2019-05-03T12:55:56.807Z,52.90
2019-05-03T12:58:46.643Z,52.63
2019-05-03T13:01:34.016Z,51.15
2019-05-03T13:04:01.797Z,51.48
2019-05-03T13:06:32.209Z,51.61
2019-05-03T13:09:00.712Z,51.49
2019-05-03T13:11:30.059Z,50.52
2019-05-03T13:13:58.674Z,50.43
2019-05-03T13:16:27.197Z,51.03
2019-05-03T13:18:55.742Z,49.58
2019-05-03T13:21:25.240Z,51.34
2019-05-03T13:23:54.855Z,50.67
2019-05-03T13:26:25.448Z,50.94
2019-05-03T13:28:55.274Z,52.36
2019-05-03T13:31:25.117Z,51.71
2019-05-03T13:33:54.931Z,51.55
2019-05-03T13:36:25.300Z,51.37
2019-05-03T13:38:54.642Z,48.56
2019-05-03T13:41:25.021Z,49.12
2019-05-03T13:43:54.902Z,50.17
2019-05-03T13:46:24.643Z,50.10
2019-05-03T13:48:55.322Z,51.85
2019-05-03T13:51:25.202Z,52.68
2019-05-03T13:53:55.040Z,52.97
2019-05-03T13:56:24.693Z,53.20
2019-05-03T13:58:55.048Z,52.68
2019-05-03T14:01:25.202Z,52.92
2019-05-03T14:03:54.557Z,52.17
2019-05-03T14:06:24.567Z,52.31
2019-05-03T14:08:54.820Z,52.14
2019-05-03T14:11:25.272Z,51.55
2019-05-03T14:13:55.217Z,49.50
2019-05-03T14:16:23.873Z,51.06
2019-05-03T14:18:55.070Z,50.01
2019-05-03T14:21:29.786Z,50.54
2019-05-03T14:24:10.978Z,50.21
2019-05-03T14:26:40.111Z,48.74
2019-05-03T14:29:08.606Z,47.68
2019-05-03T14:31:37.163Z,48.61
2019-05-03T14:34:06.118Z,48.42
2019-05-03T14:36:35.886Z,48.30
2019-05-03T14:39:09.324Z,47.18
2019-05-03T14:41:36.329Z,45.80
2019-05-03T14:44:05.135Z,47.88
2019-05-03T14:46:36.063Z,47.59
2019-05-03T14:49:05.508Z,48.22
2019-05-03T14:51:34.941Z,44.14
2019-05-03T14:54:05.414Z,47.29
2019-05-03T14:56:45.815Z,43.13
2019-05-03T14:59:32.043Z,47.42
2019-05-03T15:02:06.910Z,48.08
2019-05-03T15:04:35.429Z,47.86
2019-05-03T15:07:06.099Z,47.85
2019-05-03T15:09:35.287Z,47.90
2019-05-03T15:12:05.324Z,47.77
2019-05-03T15:14:34.630Z,48.21
2019-05-03T15:17:05.242Z,47.78
2019-05-03T15:19:34.955Z,47.71
2019-05-03T15:22:05.564Z,45.28
2019-05-03T15:24:34.603Z,48.55
2019-05-03T15:27:04.832Z,47.31
2019-05-03T15:29:35.330Z,48.55
2019-05-03T15:32:05.056Z,47.47
2019-05-03T15:34:35.392Z,47.41
2019-05-03T15:37:05.431Z,46.13
2019-05-03T15:39:34.051Z,46.73
2019-05-03T15:42:05.079Z,45.64
2019-05-03T15:44:50.878Z,45.71
2019-05-03T15:47:25.376Z,45.17
2019-05-03T15:49:55.390Z,45.49
2019-05-03T15:52:24.643Z,44.04
2019-05-03T15:54:55.096Z,44.57
2019-05-03T15:57:25.315Z,42.85
2019-05-03T15:59:55.170Z,44.26
2019-05-03T16:02:24.645Z,45.09
2019-05-03T16:04:55.410Z,42.78
2019-05-03T16:07:25.107Z,44.42
2019-05-03T16:09:55.233Z,44.39
2019-05-03T16:12:23.831Z,45.60
2019-05-03T16:14:52.412Z,45.14
2019-05-03T16:17:21.143Z,45.64
2019-05-03T16:19:49.751Z,45.90
2019-05-03T16:22:18.207Z,45.33
2019-05-03T16:24:47.094Z,46.26
2019-05-03T16:27:41.791Z,46.41
2019-05-03T16:30:26.283Z,46.04
2019-05-03T16:32:55.042Z,46.36
2019-05-03T16:35:25.541Z,46.50
2019-05-03T16:37:54.447Z,46.50
2019-05-03T16:40:25.153Z,46.34
2019-05-03T16:42:53.262Z,46.05
2019-05-03T16:45:21.745Z,46.22
2019-05-03T16:47:50.403Z,44.87
2019-05-03T16:50:18.974Z,46.02
2019-05-03T16:52:47.434Z,45.42
2019-05-03T16:55:16.443Z,46.25
2019-05-03T16:57:44.919Z,46.38
2019-05-03T17:00:15.360Z,46.16
2019-05-03T17:02:44.328Z,45.52
2019-05-03T17:05:28.244Z,46.09
2019-05-03T17:08:14.731Z,46.22
2019-05-03T17:10:46.093Z,46.58
2019-05-03T17:13:14.811Z,46.91
2019-05-03T17:15:43.218Z,47.24
2019-05-03T17:18:11.684Z,47.84
2019-05-03T17:20:40.159Z,47.87
2019-05-03T17:23:08.644Z,48.27
2019-05-03T17:25:37.168Z,50.39
2019-05-03T17:28:05.691Z,52.62
2019-05-03T17:30:37.337Z,51.55
2019-05-03T17:33:04.653Z,56.83
2019-05-03T17:35:34.604Z,54.53
2019-05-03T17:38:05.196Z,52.91
2019-05-03T17:40:51.429Z,55.85
2019-05-03T17:43:27.219Z,52.80
2019-05-03T17:45:56.795Z,53.03
2019-05-03T17:48:25.259Z,52.81
2019-05-03T17:50:55.030Z,52.86
2019-05-03T17:53:42.630Z,53.00
2019-05-03T17:56:16.105Z,54.34
2019-05-03T17:58:48.060Z,53.40
2019-05-03T18:01:25.269Z,55.67
2019-05-03T18:04:06.088Z,54.23
2019-05-03T18:06:29.545Z,57.33
2019-05-03T18:09:17.062Z,56.13
2019-05-03T18:11:47.654Z,56.34
2019-05-03T18:14:16.314Z,55.08
2019-05-03T18:16:44.853Z,55.26
2019-05-03T18:19:13.322Z,55.47
2019-05-03T18:21:41.951Z,55.96
2019-05-03T18:24:10.443Z,54.74
2019-05-03T18:26:38.921Z,55.22
2019-05-03T18:29:07.386Z,54.88
2019-05-03T18:31:36.040Z,57.73
2019-05-03T18:34:06.241Z,57.03
2019-05-03T18:36:34.797Z,55.32
2019-05-03T18:39:05.451Z,55.08
2019-05-03T18:41:34.584Z,55.73
2019-05-03T18:44:28.398Z,55.99
2019-05-03T18:46:59.629Z,56.85
2019-05-03T18:49:28.146Z,61.63
2019-05-03T18:51:56.734Z,60.77
2019-05-03T18:54:25.199Z,69.45
2019-05-03T18:56:55.577Z,62.26
2019-05-03T18:59:23.977Z,62.69
2019-05-03T19:01:52.427Z,62.04
2019-05-03T19:04:39.925Z,66.35
2019-05-03T19:07:15.947Z,65.61
2019-05-03T19:09:52.347Z,64.62
2019-05-03T19:12:30.387Z,66.07
2019-05-03T19:14:58.841Z,65.92
2019-05-03T19:17:37.929Z,65.25
2019-05-03T19:20:09.741Z,65.70
2019-05-03T19:22:38.237Z,68.39
2019-05-03T19:25:06.785Z,64.08
2019-05-03T19:27:35.358Z,64.19
2019-05-03T19:30:04.693Z,63.53
2019-05-03T19:32:33.137Z,63.92
2019-05-03T19:35:01.688Z,67.90
2019-05-03T19:37:30.133Z,62.61
2019-05-03T19:39:58.674Z,61.91
2019-05-03T19:42:27.463Z,62.46
2019-05-03T19:44:56.279Z,62.31
2019-05-03T19:47:25.381Z,62.89
2019-05-03T19:49:54.729Z,63.99
2019-05-03T19:52:26.118Z,63.72
2019-05-03T19:54:55.436Z,63.52
2019-05-03T19:57:28.621Z,62.11
2019-05-03T19:59:57.122Z,61.99
2019-05-03T20:02:45.396Z,62.32
2019-05-03T20:05:31.937Z,62.63
2019-05-03T20:08:18.474Z,63.72
2019-05-03T20:10:47.069Z,62.78
2019-05-03T20:13:15.545Z,63.04
2019-05-03T20:15:45.137Z,62.77
2019-05-03T20:18:15.048Z,62.55
2019-05-03T20:20:44.654Z,62.52
2019-05-03T20:23:14.605Z,62.88
2019-05-03T20:25:43.162Z,63.26
2019-05-03T20:28:11.645Z,65.48
2019-05-03T20:30:40.198Z,62.96
2019-05-03T20:33:08.692Z,63.56
2019-05-03T20:35:37.253Z,64.05
2019-05-03T20:38:05.788Z,63.64
2019-05-03T20:40:35.045Z,62.92
2019-05-03T20:43:25.820Z,63.16
2019-05-03T20:46:10.656Z,63.61
2019-05-03T20:48:40.986Z,63.53
2019-05-03T20:51:09.532Z,63.71
2019-05-03T20:53:37.981Z,66.90
2019-05-03T20:56:06.654Z,64.42
2019-05-03T20:58:35.818Z,64.37
2019-05-03T21:01:05.047Z,64.64
2019-05-03T21:03:33.488Z,65.25
2019-05-03T21:06:02.454Z,64.34
2019-05-03T21:08:31.604Z,65.16
2019-05-03T21:11:00.107Z,65.04
2019-05-03T21:13:39.209Z,65.31
2019-05-03T21:16:11.900Z,64.88
2019-05-03T21:18:49.289Z,64.27
2019-05-03T21:21:35.400Z,64.37
2019-05-03T21:24:11.855Z,64.71
2019-05-03T21:26:40.339Z,64.88
2019-05-03T21:29:08.872Z,64.47
2019-05-03T21:31:37.581Z,64.41
2019-05-03T21:34:06.327Z,64.31
2019-05-03T21:36:34.994Z,64.75
2019-05-03T21:39:05.318Z,64.65
2019-05-03T21:41:35.199Z,64.74
2019-05-03T21:44:04.828Z,65.40
2019-05-03T21:46:41.712Z,65.56
2019-05-03T21:49:35.306Z,65.29
2019-05-03T21:52:04.539Z,65.63
2019-05-03T21:54:34.627Z,65.10
2019-05-03T21:57:03.311Z,65.06
2019-05-03T21:59:31.754Z,65.04
2019-05-03T22:02:00.303Z,64.71
2019-05-03T22:04:28.770Z,65.10
2019-05-03T22:06:57.232Z,65.08
2019-05-03T22:09:25.691Z,65.19
2019-05-03T22:11:54.842Z,65.21
2019-05-03T22:14:30.862Z,64.89
2019-05-03T22:17:18.358Z,65.73
2019-05-03T22:19:48.928Z,65.15
2019-05-03T22:22:36.558Z,65.83
2019-05-03T22:25:05.837Z,65.72
2019-05-03T22:27:40.226Z,65.62
2019-05-03T22:30:09.002Z,65.56
2019-05-03T22:32:37.521Z,65.09
2019-05-03T22:35:07.505Z,65.52
2019-05-03T22:37:36.080Z,65.77
2019-05-03T22:40:05.342Z,66.16
2019-05-03T22:42:34.623Z,66.85
2019-05-03T22:45:04.676Z,66.57
2019-05-03T22:47:33.303Z,66.51
2019-05-03T22:50:01.862Z,67.62
2019-05-03T22:52:30.518Z,66.18
2019-05-03T22:54:58.981Z,66.37
2019-05-03T22:57:27.579Z,66.75
2019-05-03T22:59:56.056Z,66.41
2019-05-03T23:02:25.041Z,66.23
2019-05-03T23:04:55.439Z,66.90
2019-05-03T23:07:25.008Z,66.87
2019-05-03T23:09:53.487Z,66.23
2019-05-03T23:12:22.190Z,66.49
2019-05-03T23:14:50.629Z,66.15
2019-05-03T23:17:19.180Z,66.81
2019-05-03T23:19:50.666Z,66.84
2019-05-03T23:22:25.165Z,66.89
2019-05-03T23:24:54.809Z,66.88
2019-05-03T23:27:25.000Z,67.10
2019-05-03T23:29:54.530Z,66.91
2019-05-03T23:32:24.484Z,66.71
2019-05-03T23:34:54.445Z,66.87
2019-05-03T23:37:25.372Z,68.01
2019-05-03T23:39:54.983Z,67.39
2019-05-03T23:42:24.474Z,66.93
2019-05-03T23:44:52.966Z,67.06
2019-05-03T23:47:28.720Z,67.00
2019-05-03T23:49:57.190Z,67.05
2019-05-03T23:52:32.488Z,67.00
2019-05-03T23:55:01.817Z,66.86
2019-05-03T23:57:30.245Z,66.67
2019-05-03T23:59:58.715Z,66.67
